Terminal Aerodrome Forecast
Issued by NWS Charleston, WV

Current Version | Previous Version | Graphics & Text | Print | Product List | Glossary On
Versions: 1 2 3 4 5 6 7 8 9 10 11 12 13 14 15 16 17 18 19 20 21
000
FTUS41 KRLX 100317 AAA
TAFBKW
TAF AMD
KBKW 100317Z 1003/1024 28008KT P6SM OVC024
     FM101200 VRB03KT P6SM SCT035
     FM101700 27006KT P6SM FEW200=

USA.gov is the U.S. government's official web portal to all federal, state and local government web resources and services.